createdAt,value
2022-12-28T00:16:40.512Z,1023.06
2022-12-28T00:46:40.452Z,1022.71
2022-12-28T01:16:40.559Z,1022.76
2022-12-28T01:46:40.461Z,1022.26
2022-12-28T02:16:40.521Z,1021.76
2022-12-28T02:46:40.495Z,1021.07
2022-12-28T03:16:40.489Z,1020.69
2022-12-28T03:46:40.513Z,1020.29
2022-12-28T04:16:40.509Z,1020.11
2022-12-28T04:46:40.598Z,1019.88
2022-12-28T05:16:40.565Z,1019.79
2022-12-28T05:46:40.573Z,1019.46
2022-12-28T06:16:40.682Z,1019.54
2022-12-28T06:46:40.530Z,1019.32
2022-12-28T07:46:40.562Z,1018.59
2022-12-28T08:16:40.568Z,1018.53
2022-12-28T08:46:40.733Z,1018.46
2022-12-28T09:16:40.548Z,1018.27
2022-12-28T09:46:43.867Z,1018.09
2022-12-28T10:16:45.482Z,1017.91
2022-12-28T11:16:41.082Z,1017.18
2022-12-28T11:46:41.002Z,1016.66
2022-12-28T12:16:41.090Z,1016.07
2022-12-28T12:46:41.005Z,1015.88
2022-12-28T13:16:40.995Z,1015.65
2022-12-28T13:46:41.067Z,1015.34
2022-12-28T14:16:41.006Z,1015.12
2022-12-28T14:46:41.081Z,1015.1
2022-12-28T15:16:41.107Z,1014.95
2022-12-28T15:46:41.068Z,1014.71
2022-12-28T16:16:41.127Z,1014.41
2022-12-28T16:46:41.053Z,1014.49
2022-12-28T17:16:41.116Z,1014.28
2022-12-28T17:46:41.055Z,1014.15
2022-12-28T18:16:41.149Z,1013.74
2022-12-28T18:46:41.073Z,1013.48
2022-12-28T19:16:41.163Z,1013.19
2022-12-28T19:46:41.120Z,1012.84
2022-12-28T20:16:41.126Z,1012.56
2022-12-28T20:46:41.119Z,1012.19
2022-12-28T21:16:41.195Z,1011.88
2022-12-28T21:46:41.104Z,1011.56
2022-12-28T22:16:41.120Z,1011.24
2022-12-28T22:46:41.093Z,1010.86
2022-12-28T23:16:41.132Z,1010.79
2022-12-28T23:46:41.187Z,1010.53
